sensor_id;sensor_type;location;lat;lon;timestamp;P1;durP1;ratioP1;P2;durP2;ratioP2
33022;SDS011;19390;51.460;5.710;2022-08-05T00:01:17;15.95;;;8.13;;
33022;SDS011;19390;51.460;5.710;2022-08-05T00:03:44;12.05;;;7.40;;
33022;SDS011;19390;51.460;5.710;2022-08-05T00:06:11;10.70;;;7.45;;
33022;SDS011;19390;51.460;5.710;2022-08-05T00:08:37;12.85;;;8.43;;
33022;SDS011;19390;51.460;5.710;2022-08-05T00:11:05;10.93;;;7.20;;
33022;SDS011;19390;51.460;5.710;2022-08-05T00:13:34;11.00;;;7.70;;
33022;SDS011;19390;51.460;5.710;2022-08-05T00:16:00;11.15;;;7.55;;
33022;SDS011;19390;51.460;5.710;2022-08-05T00:18:26;9.15;;;7.05;;
33022;SDS011;19390;51.460;5.710;2022-08-05T00:20:52;9.70;;;7.03;;
33022;SDS011;19390;51.460;5.710;2022-08-05T00:23:19;12.48;;;7.63;;
33022;SDS011;19390;51.460;5.710;2022-08-05T00:25:45;13.07;;;8.13;;
33022;SDS011;19390;51.460;5.710;2022-08-05T00:28:11;14.30;;;8.35;;
33022;SDS011;19390;51.460;5.710;2022-08-05T00:30:37;9.20;;;7.47;;
33022;SDS011;19390;51.460;5.710;2022-08-05T00:33:02;12.88;;;9.10;;
33022;SDS011;19390;51.460;5.710;2022-08-05T00:35:28;13.07;;;8.82;;
33022;SDS011;19390;51.460;5.710;2022-08-05T00:37:54;11.82;;;8.98;;
33022;SDS011;19390;51.460;5.710;2022-08-05T00:40:21;14.55;;;9.18;;
33022;SDS011;19390;51.460;5.710;2022-08-05T00:42:47;17.60;;;9.48;;
33022;SDS011;19390;51.460;5.710;2022-08-05T00:45:13;13.05;;;9.95;;
33022;SDS011;19390;51.460;5.710;2022-08-05T00:47:39;11.60;;;8.73;;
33022;SDS011;19390;51.460;5.710;2022-08-05T00:50:05;13.20;;;9.02;;
33022;SDS011;19390;51.460;5.710;2022-08-05T00:52:31;12.43;;;8.63;;
33022;SDS011;19390;51.460;5.710;2022-08-05T00:54:56;14.10;;;10.55;;
33022;SDS011;19390;51.460;5.710;2022-08-05T00:57:22;13.63;;;7.57;;
33022;SDS011;19390;51.460;5.710;2022-08-05T00:59:48;14.15;;;8.60;;
33022;SDS011;19390;51.460;5.710;2022-08-05T01:02:13;12.40;;;9.55;;
33022;SDS011;19390;51.460;5.710;2022-08-05T01:04:39;13.98;;;9.07;;
33022;SDS011;19390;51.460;5.710;2022-08-05T01:07:05;23.25;;;10.40;;
33022;SDS011;19390;51.460;5.710;2022-08-05T01:09:30;12.20;;;9.95;;
33022;SDS011;19390;51.460;5.710;2022-08-05T01:11:57;12.75;;;9.82;;
33022;SDS011;19390;51.460;5.710;2022-08-05T01:14:34;11.90;;;9.52;;
33022;SDS011;19390;51.460;5.710;2022-08-05T01:22:57;10.73;;;9.07;;
33022;SDS011;19390;51.460;5.710;2022-08-05T01:28:32;12.27;;;9.68;;
33022;SDS011;19390;51.460;5.710;2022-08-05T01:31:23;12.63;;;7.93;;
33022;SDS011;19390;51.460;5.710;2022-08-05T01:36:42;13.13;;;9.75;;
33022;SDS011;19390;51.460;5.710;2022-08-05T01:39:11;14.25;;;8.50;;
33022;SDS011;19390;51.460;5.710;2022-08-05T01:41:38;10.55;;;8.93;;
33022;SDS011;19390;51.460;5.710;2022-08-05T01:44:06;13.88;;;8.98;;
33022;SDS011;19390;51.460;5.710;2022-08-05T01:46:33;10.70;;;8.82;;
33022;SDS011;19390;51.460;5.710;2022-08-05T01:49:00;13.73;;;8.57;;
33022;SDS011;19390;51.460;5.710;2022-08-05T01:51:27;16.73;;;9.13;;
33022;SDS011;19390;51.460;5.710;2022-08-05T01:53:56;13.90;;;8.52;;
33022;SDS011;19390;51.460;5.710;2022-08-05T01:56:25;14.20;;;10.25;;
33022;SDS011;19390;51.460;5.710;2022-08-05T02:01:23;13.10;;;9.13;;
33022;SDS011;19390;51.460;5.710;2022-08-05T02:03:51;14.10;;;10.38;;
33022;SDS011;19390;51.460;5.710;2022-08-05T02:06:19;11.05;;;9.00;;
33022;SDS011;19390;51.460;5.710;2022-08-05T02:08:45;9.93;;;8.90;;
33022;SDS011;19390;51.460;5.710;2022-08-05T02:11:11;16.80;;;11.40;;
33022;SDS011;19390;51.460;5.710;2022-08-05T02:13:40;15.60;;;10.50;;
33022;SDS011;19390;51.460;5.710;2022-08-05T02:16:26;13.30;;;10.48;;
33022;SDS011;19390;51.460;5.710;2022-08-05T02:19:10;15.15;;;10.80;;
33022;SDS011;19390;51.460;5.710;2022-08-05T02:21:44;13.30;;;10.68;;
33022;SDS011;19390;51.460;5.710;2022-08-05T02:24:17;13.50;;;10.38;;
33022;SDS011;19390;51.460;5.710;2022-08-05T02:26:48;16.60;;;10.57;;
33022;SDS011;19390;51.460;5.710;2022-08-05T02:29:21;10.13;;;8.68;;
33022;SDS011;19390;51.460;5.710;2022-08-05T02:31:49;14.02;;;10.05;;
33022;SDS011;19390;51.460;5.710;2022-08-05T02:34:17;16.65;;;10.52;;
33022;SDS011;19390;51.460;5.710;2022-08-05T02:36:48;17.88;;;11.38;;
33022;SDS011;19390;51.460;5.710;2022-08-05T02:39:18;14.25;;;10.02;;
33022;SDS011;19390;51.460;5.710;2022-08-05T02:41:46;14.90;;;10.40;;
33022;SDS011;19390;51.460;5.710;2022-08-05T02:44:13;10.90;;;9.63;;
33022;SDS011;19390;51.460;5.710;2022-08-05T02:46:40;15.70;;;10.52;;
33022;SDS011;19390;51.460;5.710;2022-08-05T02:49:08;13.45;;;8.98;;
33022;SDS011;19390;51.460;5.710;2022-08-05T02:51:36;14.52;;;9.95;;
33022;SDS011;19390;51.460;5.710;2022-08-05T02:54:01;12.18;;;8.90;;
33022;SDS011;19390;51.460;5.710;2022-08-05T02:56:29;11.52;;;9.68;;
33022;SDS011;19390;51.460;5.710;2022-08-05T02:58:56;11.93;;;9.30;;
33022;SDS011;19390;51.460;5.710;2022-08-05T03:01:24;12.30;;;10.00;;
33022;SDS011;19390;51.460;5.710;2022-08-05T03:03:51;12.40;;;8.43;;
33022;SDS011;19390;51.460;5.710;2022-08-05T03:06:19;13.77;;;10.30;;
33022;SDS011;19390;51.460;5.710;2022-08-05T03:08:46;12.27;;;10.68;;
33022;SDS011;19390;51.460;5.710;2022-08-05T03:11:22;13.98;;;9.52;;
33022;SDS011;19390;51.460;5.710;2022-08-05T03:13:49;13.80;;;10.77;;
33022;SDS011;19390;51.460;5.710;2022-08-05T03:16:16;15.35;;;11.07;;
33022;SDS011;19390;51.460;5.710;2022-08-05T03:18:42;15.07;;;11.05;;
33022;SDS011;19390;51.460;5.710;2022-08-05T03:21:08;15.00;;;10.75;;
33022;SDS011;19390;51.460;5.710;2022-08-05T03:23:34;18.20;;;10.77;;
33022;SDS011;19390;51.460;5.710;2022-08-05T03:26:01;17.13;;;10.73;;
33022;SDS011;19390;51.460;5.710;2022-08-05T03:28:27;14.63;;;10.68;;
33022;SDS011;19390;51.460;5.710;2022-08-05T03:30:54;16.73;;;11.10;;
33022;SDS011;19390;51.460;5.710;2022-08-05T03:33:20;16.00;;;11.02;;
33022;SDS011;19390;51.460;5.710;2022-08-05T03:35:46;18.77;;;10.68;;
33022;SDS011;19390;51.460;5.710;2022-08-05T03:38:13;12.40;;;8.98;;
33022;SDS011;19390;51.460;5.710;2022-08-05T03:40:43;13.80;;;10.68;;
33022;SDS011;19390;51.460;5.710;2022-08-05T03:43:09;16.00;;;10.90;;
33022;SDS011;19390;51.460;5.710;2022-08-05T03:45:35;13.93;;;10.13;;
33022;SDS011;19390;51.460;5.710;2022-08-05T03:48:01;14.50;;;9.82;;
33022;SDS011;19390;51.460;5.710;2022-08-05T03:50:27;20.45;;;10.35;;
33022;SDS011;19390;51.460;5.710;2022-08-05T03:53:10;17.50;;;11.15;;
33022;SDS011;19390;51.460;5.710;2022-08-05T03:55:43;20.75;;;11.63;;
33022;SDS011;19390;51.460;5.710;2022-08-05T03:58:15;15.85;;;10.57;;
33022;SDS011;19390;51.460;5.710;2022-08-05T04:00:42;17.20;;;10.00;;
33022;SDS011;19390;51.460;5.710;2022-08-05T04:03:09;14.35;;;9.30;;
33022;SDS011;19390;51.460;5.710;2022-08-05T04:05:37;17.25;;;10.60;;
33022;SDS011;19390;51.460;5.710;2022-08-05T04:08:08;15.30;;;9.80;;
33022;SDS011;19390;51.460;5.710;2022-08-05T04:10:34;16.88;;;10.48;;
33022;SDS011;19390;51.460;5.710;2022-08-05T04:13:01;16.52;;;11.20;;
33022;SDS011;19390;51.460;5.710;2022-08-05T04:15:27;15.43;;;10.57;;
33022;SDS011;19390;51.460;5.710;2022-08-05T04:17:53;17.15;;;11.50;;
33022;SDS011;19390;51.460;5.710;2022-08-05T04:20:20;13.57;;;10.35;;
33022;SDS011;19390;51.460;5.710;2022-08-05T04:22:46;13.38;;;9.73;;
33022;SDS011;19390;51.460;5.710;2022-08-05T04:25:12;15.55;;;10.90;;
33022;SDS011;19390;51.460;5.710;2022-08-05T04:27:38;14.57;;;11.43;;
33022;SDS011;19390;51.460;5.710;2022-08-05T04:30:04;19.13;;;12.20;;
33022;SDS011;19390;51.460;5.710;2022-08-05T04:32:30;18.23;;;11.82;;
33022;SDS011;19390;51.460;5.710;2022-08-05T04:34:56;16.42;;;13.15;;
33022;SDS011;19390;51.460;5.710;2022-08-05T04:37:21;17.80;;;11.32;;
33022;SDS011;19390;51.460;5.710;2022-08-05T04:39:47;19.10;;;11.90;;
33022;SDS011;19390;51.460;5.710;2022-08-05T04:42:13;17.00;;;11.80;;
33022;SDS011;19390;51.460;5.710;2022-08-05T04:44:39;15.20;;;11.02;;
33022;SDS011;19390;51.460;5.710;2022-08-05T04:47:05;19.23;;;10.43;;
33022;SDS011;19390;51.460;5.710;2022-08-05T04:49:30;18.23;;;11.18;;
33022;SDS011;19390;51.460;5.710;2022-08-05T04:51:56;15.73;;;12.52;;
33022;SDS011;19390;51.460;5.710;2022-08-05T04:54:22;18.80;;;10.95;;
33022;SDS011;19390;51.460;5.710;2022-08-05T04:56:51;17.02;;;10.63;;
33022;SDS011;19390;51.460;5.710;2022-08-05T04:59:20;20.80;;;12.80;;
33022;SDS011;19390;51.460;5.710;2022-08-05T05:01:47;20.52;;;12.05;;
33022;SDS011;19390;51.460;5.710;2022-08-05T05:04:13;18.60;;;11.68;;
33022;SDS011;19390;51.460;5.710;2022-08-05T05:06:39;15.80;;;11.35;;
33022;SDS011;19390;51.460;5.710;2022-08-05T05:09:04;18.67;;;13.25;;
33022;SDS011;19390;51.460;5.710;2022-08-05T05:11:30;15.68;;;11.65;;
33022;SDS011;19390;51.460;5.710;2022-08-05T05:13:55;15.23;;;11.00;;
33022;SDS011;19390;51.460;5.710;2022-08-05T05:16:21;14.63;;;10.30;;
33022;SDS011;19390;51.460;5.710;2022-08-05T05:18:47;15.13;;;10.05;;
33022;SDS011;19390;51.460;5.710;2022-08-05T05:21:12;17.10;;;11.25;;
33022;SDS011;19390;51.460;5.710;2022-08-05T05:23:38;19.00;;;9.85;;
33022;SDS011;19390;51.460;5.710;2022-08-05T05:26:04;15.07;;;9.95;;
33022;SDS011;19390;51.460;5.710;2022-08-05T05:28:29;13.13;;;7.80;;
33022;SDS011;19390;51.460;5.710;2022-08-05T05:30:55;15.88;;;8.82;;
33022;SDS011;19390;51.460;5.710;2022-08-05T05:33:21;11.43;;;7.85;;
33022;SDS011;19390;51.460;5.710;2022-08-05T05:35:47;12.90;;;6.90;;
33022;SDS011;19390;51.460;5.710;2022-08-05T05:38:13;14.38;;;8.18;;
33022;SDS011;19390;51.460;5.710;2022-08-05T05:40:39;13.13;;;6.93;;
33022;SDS011;19390;51.460;5.710;2022-08-05T05:43:05;11.32;;;6.65;;
33022;SDS011;19390;51.460;5.710;2022-08-05T05:45:31;12.93;;;7.22;;
33022;SDS011;19390;51.460;5.710;2022-08-05T05:47:57;11.45;;;6.10;;
33022;SDS011;19390;51.460;5.710;2022-08-05T05:50:23;8.48;;;6.35;;
33022;SDS011;19390;51.460;5.710;2022-08-05T05:52:48;11.80;;;6.45;;
33022;SDS011;19390;51.460;5.710;2022-08-05T05:55:14;10.32;;;6.28;;
33022;SDS011;19390;51.460;5.710;2022-08-05T05:57:41;8.95;;;6.40;;
33022;SDS011;19390;51.460;5.710;2022-08-05T06:00:10;13.60;;;7.10;;
33022;SDS011;19390;51.460;5.710;2022-08-05T06:02:41;14.10;;;7.72;;
33022;SDS011;19390;51.460;5.710;2022-08-05T06:05:08;16.20;;;7.05;;
33022;SDS011;19390;51.460;5.710;2022-08-05T06:07:34;10.40;;;7.68;;
33022;SDS011;19390;51.460;5.710;2022-08-05T06:10:00;14.85;;;8.00;;
33022;SDS011;19390;51.460;5.710;2022-08-05T06:12:26;14.35;;;8.30;;
33022;SDS011;19390;51.460;5.710;2022-08-05T06:14:52;10.60;;;7.35;;
33022;SDS011;19390;51.460;5.710;2022-08-05T06:17:18;11.70;;;6.22;;
33022;SDS011;19390;51.460;5.710;2022-08-05T06:19:43;14.00;;;7.53;;
33022;SDS011;19390;51.460;5.710;2022-08-05T06:22:09;12.57;;;7.47;;
33022;SDS011;19390;51.460;5.710;2022-08-05T06:24:35;11.18;;;7.57;;
33022;SDS011;19390;51.460;5.710;2022-08-05T06:27:06;13.15;;;7.55;;
33022;SDS011;19390;51.460;5.710;2022-08-05T06:29:32;12.23;;;7.10;;
33022;SDS011;19390;51.460;5.710;2022-08-05T06:31:57;13.20;;;7.78;;
33022;SDS011;19390;51.460;5.710;2022-08-05T06:34:23;11.50;;;8.40;;
33022;SDS011;19390;51.460;5.710;2022-08-05T06:36:48;13.55;;;9.15;;
33022;SDS011;19390;51.460;5.710;2022-08-05T06:39:14;11.98;;;8.80;;
33022;SDS011;19390;51.460;5.710;2022-08-05T06:41:39;12.95;;;8.77;;
33022;SDS011;19390;51.460;5.710;2022-08-05T06:44:05;12.80;;;8.73;;
33022;SDS011;19390;51.460;5.710;2022-08-05T06:46:31;13.27;;;8.57;;
33022;SDS011;19390;51.460;5.710;2022-08-05T06:48:57;12.20;;;7.82;;
33022;SDS011;19390;51.460;5.710;2022-08-05T06:51:23;13.07;;;8.48;;
33022;SDS011;19390;51.460;5.710;2022-08-05T06:53:49;11.75;;;6.90;;
33022;SDS011;19390;51.460;5.710;2022-08-05T06:56:14;10.18;;;7.32;;
33022;SDS011;19390;51.460;5.710;2022-08-05T06:58:40;17.45;;;8.73;;
33022;SDS011;19390;51.460;5.710;2022-08-05T07:01:05;9.57;;;6.28;;
33022;SDS011;19390;51.460;5.710;2022-08-05T07:03:31;12.40;;;7.93;;
33022;SDS011;19390;51.460;5.710;2022-08-05T07:05:57;13.65;;;8.10;;
33022;SDS011;19390;51.460;5.710;2022-08-05T07:08:23;11.52;;;7.63;;
33022;SDS011;19390;51.460;5.710;2022-08-05T07:10:52;9.32;;;5.70;;
33022;SDS011;19390;51.460;5.710;2022-08-05T07:13:18;11.55;;;7.65;;
33022;SDS011;19390;51.460;5.710;2022-08-05T07:16:03;11.70;;;7.25;;
33022;SDS011;19390;51.460;5.710;2022-08-05T07:18:47;12.77;;;7.22;;
33022;SDS011;19390;51.460;5.710;2022-08-05T07:21:12;10.95;;;6.85;;
33022;SDS011;19390;51.460;5.710;2022-08-05T07:23:38;9.23;;;6.32;;
33022;SDS011;19390;51.460;5.710;2022-08-05T07:26:04;14.07;;;8.25;;
33022;SDS011;19390;51.460;5.710;2022-08-05T07:28:29;10.73;;;7.97;;
33022;SDS011;19390;51.460;5.710;2022-08-05T07:30:55;12.50;;;7.65;;
33022;SDS011;19390;51.460;5.710;2022-08-05T07:33:21;12.00;;;9.07;;
33022;SDS011;19390;51.460;5.710;2022-08-05T07:35:46;13.10;;;10.35;;
33022;SDS011;19390;51.460;5.710;2022-08-05T07:38:13;11.18;;;8.80;;
33022;SDS011;19390;51.460;5.710;2022-08-05T07:40:39;12.88;;;8.07;;
33022;SDS011;19390;51.460;5.710;2022-08-05T07:43:05;12.05;;;8.90;;
33022;SDS011;19390;51.460;5.710;2022-08-05T07:45:31;11.98;;;9.00;;
33022;SDS011;19390;51.460;5.710;2022-08-05T07:47:57;17.27;;;8.63;;
33022;SDS011;19390;51.460;5.710;2022-08-05T07:50:23;11.80;;;6.95;;
33022;SDS011;19390;51.460;5.710;2022-08-05T07:52:48;11.20;;;8.90;;
33022;SDS011;19390;51.460;5.710;2022-08-05T07:55:14;13.65;;;9.30;;
33022;SDS011;19390;51.460;5.710;2022-08-05T07:57:39;10.25;;;7.38;;
33022;SDS011;19390;51.460;5.710;2022-08-05T08:00:05;13.35;;;8.10;;
33022;SDS011;19390;51.460;5.710;2022-08-05T08:02:32;10.55;;;7.68;;
33022;SDS011;19390;51.460;5.710;2022-08-05T08:04:58;10.35;;;7.65;;
33022;SDS011;19390;51.460;5.710;2022-08-05T08:07:25;10.27;;;7.35;;
33022;SDS011;19390;51.460;5.710;2022-08-05T08:09:51;11.88;;;7.63;;
33022;SDS011;19390;51.460;5.710;2022-08-05T08:12:17;12.02;;;7.22;;
33022;SDS011;19390;51.460;5.710;2022-08-05T08:14:43;10.85;;;7.93;;
33022;SDS011;19390;51.460;5.710;2022-08-05T08:17:09;10.43;;;7.00;;
33022;SDS011;19390;51.460;5.710;2022-08-05T08:19:35;10.05;;;7.13;;
33022;SDS011;19390;51.460;5.710;2022-08-05T08:22:01;10.20;;;6.85;;
33022;SDS011;19390;51.460;5.710;2022-08-05T08:24:28;9.95;;;7.03;;
33022;SDS011;19390;51.460;5.710;2022-08-05T08:26:54;10.63;;;6.47;;
33022;SDS011;19390;51.460;5.710;2022-08-05T08:29:19;8.65;;;5.60;;
33022;SDS011;19390;51.460;5.710;2022-08-05T08:31:45;11.38;;;5.53;;
33022;SDS011;19390;51.460;5.710;2022-08-05T08:34:11;8.88;;;3.83;;
33022;SDS011;19390;51.460;5.710;2022-08-05T08:36:37;8.13;;;4.45;;
33022;SDS011;19390;51.460;5.710;2022-08-05T08:39:02;6.60;;;3.60;;
33022;SDS011;19390;51.460;5.710;2022-08-05T08:41:28;5.93;;;2.95;;
33022;SDS011;19390;51.460;5.710;2022-08-05T08:43:58;8.98;;;3.13;;
33022;SDS011;19390;51.460;5.710;2022-08-05T08:46:28;7.18;;;2.90;;
33022;SDS011;19390;51.460;5.710;2022-08-05T08:48:56;6.35;;;2.47;;
33022;SDS011;19390;51.460;5.710;2022-08-05T08:51:22;6.05;;;1.92;;
33022;SDS011;19390;51.460;5.710;2022-08-05T08:53:51;5.22;;;1.92;;
33022;SDS011;19390;51.460;5.710;2022-08-05T08:56:17;4.13;;;1.80;;
33022;SDS011;19390;51.460;5.710;2022-08-05T08:58:45;6.15;;;1.70;;
33022;SDS011;19390;51.460;5.710;2022-08-05T09:01:11;3.95;;;1.65;;
33022;SDS011;19390;51.460;5.710;2022-08-05T09:03:37;6.00;;;1.90;;
33022;SDS011;19390;51.460;5.710;2022-08-05T09:06:02;6.28;;;1.30;;
33022;SDS011;19390;51.460;5.710;2022-08-05T09:08:29;6.18;;;1.80;;
33022;SDS011;19390;51.460;5.710;2022-08-05T09:10:55;4.50;;;1.40;;
33022;SDS011;19390;51.460;5.710;2022-08-05T09:13:20;3.05;;;1.10;;
33022;SDS011;19390;51.460;5.710;2022-08-05T09:15:46;5.03;;;1.40;;
33022;SDS011;19390;51.460;5.710;2022-08-05T09:18:12;4.03;;;1.60;;
33022;SDS011;19390;51.460;5.710;2022-08-05T09:20:38;5.78;;;1.50;;
33022;SDS011;19390;51.460;5.710;2022-08-05T09:25:36;8.25;;;2.25;;
33022;SDS011;19390;51.460;5.710;2022-08-05T09:30:37;3.15;;;1.30;;
33022;SDS011;19390;51.460;5.710;2022-08-05T09:33:05;3.58;;;1.48;;
33022;SDS011;19390;51.460;5.710;2022-08-05T09:35:31;3.95;;;1.33;;
33022;SDS011;19390;51.460;5.710;2022-08-05T09:37:57;5.75;;;1.48;;
33022;SDS011;19390;51.460;5.710;2022-08-05T09:40:33;3.47;;;1.13;;
33022;SDS011;19390;51.460;5.710;2022-08-05T09:43:01;4.35;;;1.30;;
33022;SDS011;19390;51.460;5.710;2022-08-05T09:45:37;5.32;;;1.38;;
33022;SDS011;19390;51.460;5.710;2022-08-05T09:50:51;3.95;;;1.40;;
33022;SDS011;19390;51.460;5.710;2022-08-05T09:53:18;4.22;;;1.40;;
33022;SDS011;19390;51.460;5.710;2022-08-05T09:55:44;4.07;;;1.52;;
33022;SDS011;19390;51.460;5.710;2022-08-05T09:58:11;2.65;;;1.10;;
33022;SDS011;19390;51.460;5.710;2022-08-05T10:00:38;6.50;;;1.60;;
33022;SDS011;19390;51.460;5.710;2022-08-05T10:03:10;5.53;;;1.40;;
33022;SDS011;19390;51.460;5.710;2022-08-05T10:05:36;3.15;;;1.25;;
33022;SDS011;19390;51.460;5.710;2022-08-05T10:08:03;2.97;;;1.60;;
33022;SDS011;19390;51.460;5.710;2022-08-05T10:10:37;3.70;;;1.52;;
33022;SDS011;19390;51.460;5.710;2022-08-05T10:13:10;4.05;;;1.20;;
33022;SDS011;19390;51.460;5.710;2022-08-05T10:15:40;4.07;;;1.77;;
33022;SDS011;19390;51.460;5.710;2022-08-05T10:18:14;4.60;;;1.83;;
33022;SDS011;19390;51.460;5.710;2022-08-05T10:21:03;5.20;;;1.95;;
33022;SDS011;19390;51.460;5.710;2022-08-05T10:23:34;5.22;;;1.67;;
33022;SDS011;19390;51.460;5.710;2022-08-05T10:26:05;3.85;;;1.50;;
33022;SDS011;19390;51.460;5.710;2022-08-05T10:28:33;6.27;;;2.23;;
33022;SDS011;19390;51.460;5.710;2022-08-05T10:30:59;3.67;;;1.73;;
33022;SDS011;19390;51.460;5.710;2022-08-05T10:33:27;2.88;;;1.38;;
33022;SDS011;19390;51.460;5.710;2022-08-05T10:35:55;3.97;;;1.63;;
33022;SDS011;19390;51.460;5.710;2022-08-05T10:38:22;3.83;;;1.70;;
33022;SDS011;19390;51.460;5.710;2022-08-05T10:46:01;3.40;;;1.60;;
33022;SDS011;19390;51.460;5.710;2022-08-05T10:51:03;2.83;;;1.10;;
33022;SDS011;19390;51.460;5.710;2022-08-05T10:53:37;1.95;;;1.30;;
33022;SDS011;19390;51.460;5.710;2022-08-05T10:56:16;3.75;;;1.60;;
33022;SDS011;19390;51.460;5.710;2022-08-05T10:59:02;3.67;;;1.20;;
33022;SDS011;19390;51.460;5.710;2022-08-05T11:01:31;3.25;;;1.00;;
33022;SDS011;19390;51.460;5.710;2022-08-05T11:04:12;3.75;;;1.55;;
33022;SDS011;19390;51.460;5.710;2022-08-05T11:09:25;2.53;;;1.33;;
33022;SDS011;19390;51.460;5.710;2022-08-05T11:12:00;4.85;;;1.35;;
33022;SDS011;19390;51.460;5.710;2022-08-05T11:14:31;3.17;;;1.02;;
33022;SDS011;19390;51.460;5.710;2022-08-05T11:19:48;2.65;;;1.00;;
33022;SDS011;19390;51.460;5.710;2022-08-05T11:28:32;2.35;;;0.70;;
33022;SDS011;19390;51.460;5.710;2022-08-05T11:36:18;2.85;;;0.73;;
33022;SDS011;19390;51.460;5.710;2022-08-05T11:41:25;0.85;;;0.40;;
33022;SDS011;19390;51.460;5.710;2022-08-05T11:46:35;1.60;;;0.50;;
33022;SDS011;19390;51.460;5.710;2022-08-05T11:49:02;1.98;;;0.50;;
33022;SDS011;19390;51.460;5.710;2022-08-05T11:51:29;1.98;;;0.50;;
33022;SDS011;19390;51.460;5.710;2022-08-05T11:53:55;1.02;;;0.55;;
33022;SDS011;19390;51.460;5.710;2022-08-05T11:56:21;1.15;;;0.40;;
33022;SDS011;19390;51.460;5.710;2022-08-05T11:58:47;1.83;;;0.50;;
33022;SDS011;19390;51.460;5.710;2022-08-05T12:01:15;3.38;;;0.60;;
33022;SDS011;19390;51.460;5.710;2022-08-05T12:03:47;3.40;;;0.40;;
33022;SDS011;19390;51.460;5.710;2022-08-05T12:06:18;0.52;;;0.30;;
33022;SDS011;19390;51.460;5.710;2022-08-05T12:08:48;2.05;;;0.55;;
33022;SDS011;19390;51.460;5.710;2022-08-05T12:11:19;2.40;;;0.50;;
33022;SDS011;19390;51.460;5.710;2022-08-05T12:13:53;1.15;;;0.43;;
33022;SDS011;19390;51.460;5.710;2022-08-05T12:16:24;3.10;;;0.60;;
33022;SDS011;19390;51.460;5.710;2022-08-05T12:18:51;1.17;;;0.40;;
33022;SDS011;19390;51.460;5.710;2022-08-05T12:21:22;2.13;;;0.50;;
33022;SDS011;19390;51.460;5.710;2022-08-05T12:23:58;2.60;;;0.32;;
33022;SDS011;19390;51.460;5.710;2022-08-05T12:26:30;2.40;;;0.50;;
33022;SDS011;19390;51.460;5.710;2022-08-05T12:28:57;2.38;;;0.50;;
33022;SDS011;19390;51.460;5.710;2022-08-05T12:31:22;1.55;;;0.20;;
33022;SDS011;19390;51.460;5.710;2022-08-05T12:33:48;1.88;;;0.50;;
33022;SDS011;19390;51.460;5.710;2022-08-05T12:36:14;3.08;;;0.40;;
33022;SDS011;19390;51.460;5.710;2022-08-05T12:38:41;2.38;;;0.50;;
33022;SDS011;19390;51.460;5.710;2022-08-05T12:41:13;1.88;;;0.40;;
33022;SDS011;19390;51.460;5.710;2022-08-05T12:46:19;3.65;;;0.63;;
33022;SDS011;19390;51.460;5.710;2022-08-05T12:48:45;2.60;;;0.50;;
33022;SDS011;19390;51.460;5.710;2022-08-05T12:51:12;2.63;;;0.60;;
33022;SDS011;19390;51.460;5.710;2022-08-05T12:53:44;3.90;;;0.60;;
33022;SDS011;19390;51.460;5.710;2022-08-05T12:56:22;3.38;;;0.80;;
33022;SDS011;19390;51.460;5.710;2022-08-05T13:01:37;4.40;;;0.55;;
33022;SDS011;19390;51.460;5.710;2022-08-05T13:04:04;4.75;;;0.80;;
33022;SDS011;19390;51.460;5.710;2022-08-05T13:06:30;3.55;;;0.55;;
33022;SDS011;19390;51.460;5.710;2022-08-05T13:08:55;1.75;;;0.65;;
33022;SDS011;19390;51.460;5.710;2022-08-05T13:11:27;2.58;;;0.75;;
33022;SDS011;19390;51.460;5.710;2022-08-05T13:13:55;1.95;;;0.60;;
33022;SDS011;19390;51.460;5.710;2022-08-05T13:16:21;2.60;;;0.65;;
33022;SDS011;19390;51.460;5.710;2022-08-05T13:18:50;3.00;;;0.77;;
33022;SDS011;19390;51.460;5.710;2022-08-05T13:21:16;3.90;;;0.57;;
33022;SDS011;19390;51.460;5.710;2022-08-05T13:23:42;2.22;;;0.75;;
33022;SDS011;19390;51.460;5.710;2022-08-05T13:26:07;2.85;;;0.50;;
33022;SDS011;19390;51.460;5.710;2022-08-05T13:28:33;4.47;;;0.63;;
33022;SDS011;19390;51.460;5.710;2022-08-05T13:30:59;4.30;;;0.60;;
33022;SDS011;19390;51.460;5.710;2022-08-05T13:33:24;2.30;;;0.88;;
33022;SDS011;19390;51.460;5.710;2022-08-05T13:35:50;0.70;;;0.40;;
33022;SDS011;19390;51.460;5.710;2022-08-05T13:38:15;2.72;;;0.60;;
33022;SDS011;19390;51.460;5.710;2022-08-05T13:40:41;3.70;;;0.73;;
33022;SDS011;19390;51.460;5.710;2022-08-05T13:43:07;2.05;;;0.60;;
33022;SDS011;19390;51.460;5.710;2022-08-05T13:45:32;3.00;;;0.50;;
33022;SDS011;19390;51.460;5.710;2022-08-05T13:47:58;2.70;;;0.57;;
33022;SDS011;19390;51.460;5.710;2022-08-05T13:50:24;1.20;;;0.40;;
33022;SDS011;19390;51.460;5.710;2022-08-05T13:52:49;3.17;;;0.73;;
33022;SDS011;19390;51.460;5.710;2022-08-05T13:55:15;1.73;;;0.50;;
33022;SDS011;19390;51.460;5.710;2022-08-05T13:57:40;1.70;;;0.65;;
33022;SDS011;19390;51.460;5.710;2022-08-05T14:00:06;1.35;;;0.40;;
33022;SDS011;19390;51.460;5.710;2022-08-05T14:02:32;2.15;;;0.60;;
33022;SDS011;19390;51.460;5.710;2022-08-05T14:04:58;2.78;;;0.50;;
33022;SDS011;19390;51.460;5.710;2022-08-05T14:07:36;2.22;;;0.55;;
33022;SDS011;19390;51.460;5.710;2022-08-05T14:10:07;0.95;;;0.40;;
33022;SDS011;19390;51.460;5.710;2022-08-05T14:12:38;2.50;;;0.40;;
33022;SDS011;19390;51.460;5.710;2022-08-05T14:15:04;2.97;;;0.20;;
33022;SDS011;19390;51.460;5.710;2022-08-05T14:17:30;0.65;;;0.20;;
33022;SDS011;19390;51.460;5.710;2022-08-05T14:19:56;2.58;;;0.40;;
33022;SDS011;19390;51.460;5.710;2022-08-05T14:22:21;0.98;;;0.40;;
33022;SDS011;19390;51.460;5.710;2022-08-05T14:24:47;1.15;;;0.22;;
33022;SDS011;19390;51.460;5.710;2022-08-05T14:27:13;1.48;;;0.30;;
33022;SDS011;19390;51.460;5.710;2022-08-05T14:29:38;3.60;;;0.60;;
33022;SDS011;19390;51.460;5.710;2022-08-05T14:32:04;3.72;;;0.60;;
33022;SDS011;19390;51.460;5.710;2022-08-05T14:34:30;2.58;;;0.25;;
33022;SDS011;19390;51.460;5.710;2022-08-05T14:36:56;3.22;;;0.63;;
33022;SDS011;19390;51.460;5.710;2022-08-05T14:39:22;0.93;;;0.20;;
33022;SDS011;19390;51.460;5.710;2022-08-05T14:41:48;0.57;;;0.40;;
33022;SDS011;19390;51.460;5.710;2022-08-05T14:44:13;2.35;;;0.40;;
33022;SDS011;19390;51.460;5.710;2022-08-05T14:46:39;1.35;;;0.30;;
33022;SDS011;19390;51.460;5.710;2022-08-05T14:49:05;2.60;;;0.30;;
33022;SDS011;19390;51.460;5.710;2022-08-05T14:51:31;1.30;;;0.50;;
33022;SDS011;19390;51.460;5.710;2022-08-05T14:53:57;2.92;;;0.30;;
33022;SDS011;19390;51.460;5.710;2022-08-05T14:56:23;1.90;;;0.40;;
33022;SDS011;19390;51.460;5.710;2022-08-05T14:58:49;1.10;;;0.50;;
33022;SDS011;19390;51.460;5.710;2022-08-05T15:01:16;1.33;;;0.43;;
33022;SDS011;19390;51.460;5.710;2022-08-05T15:03:42;2.08;;;0.52;;
33022;SDS011;19390;51.460;5.710;2022-08-05T15:06:08;1.80;;;0.40;;
33022;SDS011;19390;51.460;5.710;2022-08-05T15:08:33;2.60;;;0.50;;
33022;SDS011;19390;51.460;5.710;2022-08-05T15:10:59;3.75;;;0.50;;
33022;SDS011;19390;51.460;5.710;2022-08-05T15:13:24;3.22;;;0.60;;
33022;SDS011;19390;51.460;5.710;2022-08-05T15:15:50;1.63;;;0.68;;
33022;SDS011;19390;51.460;5.710;2022-08-05T15:18:16;4.88;;;0.52;;
33022;SDS011;19390;51.460;5.710;2022-08-05T15:20:41;4.55;;;0.43;;
33022;SDS011;19390;51.460;5.710;2022-08-05T15:23:10;7.78;;;2.47;;
33022;SDS011;19390;51.460;5.710;2022-08-05T15:25:36;3.00;;;1.35;;
33022;SDS011;19390;51.460;5.710;2022-08-05T15:28:04;8.25;;;2.35;;
33022;SDS011;19390;51.460;5.710;2022-08-05T15:30:30;2.03;;;1.00;;
33022;SDS011;19390;51.460;5.710;2022-08-05T15:32:58;34.60;;;8.70;;
33022;SDS011;19390;51.460;5.710;2022-08-05T15:35:24;7.50;;;2.97;;
33022;SDS011;19390;51.460;5.710;2022-08-05T15:37:51;7.32;;;1.35;;